Owensboro Daviess County Airport Owensboro US
ICAO: KOWB
IATA: OWB
Category: Medium
Scheduled Services: Yes

Elevation: 407 ft
TransAlt. 18000 ft.

Airport Communications:
EVANSVILLE APP/DEP:126.4
CTAF:120.7
GND:121.7
LOUISVILLE RDO:108.6
TWR:120.7
UNICOM:122.95

KOWB Zoom In..

If you have problems with the map follow the link
https://www.worldairports.se/pages/airport.php?
ICAO=KOWB

Runways:

(A) RW 06 length 5000 ft width 100 ft
---- / hdg 56

(B) RW 18 length 8000 ft width 150 ft
---- / hdg 182

(C) RW 24 length 5000 ft width 100 ft
---- / hdg 236

(D) RW 36 length 8000 ft width 150 ft
ILS 111.50 / hdg 2

Location; KOWB
Day. 20 / Time. 07.56 Zulu
* Altimeter: 30.54
* Temperature: -08° c. -17.6°f.
* Wind from: 350° Speed 07 kn.
Dewpoint: -12° c.
Visibility: 9 Statute Miles.
Clouds: Overcast 1800 ft.
Conditions: Light Snow.

KOWB 200756Z AUTO 35007KT 9SM -SN OVC018 M08/M12 A3054 RMK AO2 SLP348 P0000 T10831117


Wind From 350°
Speed 07 kn.

 
 
jpsmedia worldairports.se 2020   terms of use